Thibodaux, Louisiana
Current Conditions -  °F | °C
As of 12:47 PM on Sunday 21 Dec 2014 (Local Time) from KHUM Reporting Station
Overcast Overcast  
Wind Chill: 57°   Ceiling: 1300
Heat Index: 57°   Visibility: 7mi
Dew Point: 52°   Wind: 7mph
Humidity: 82%   Direction: 40°NE
Pressure: 30.04"   Gusts: NA
Location:  29.8°N, 90.82°W
Report Text: KHUM 211847Z 04006KT 7SM OVC013 14/11 A3004 RMK RY12/30 CLSD ATIS Q GPS RY36 DV
Loading
Personal Weather Stations






























Interactive Weather Map New forecast layout! Learn more

10-Day Weather Forecast

Advertisements
Track Severe Weather on mobile